createdAt,value
2022-10-13T00:01:28.084Z,7.22
2022-10-13T00:03:56.512Z,7.85
2022-10-13T00:06:26.355Z,7.95
2022-10-13T00:08:54.585Z,7.90
2022-10-13T00:11:27.892Z,8.38
2022-10-13T00:14:01.117Z,6.70
2022-10-13T00:16:31.780Z,8.10
2022-10-13T00:19:00.080Z,7.13
2022-10-13T00:21:29.784Z,8.15
2022-10-13T00:23:58.523Z,7.68
2022-10-13T00:26:27.021Z,6.97
2022-10-13T00:28:56.478Z,7.40
2022-10-13T00:31:26.958Z,7.60
2022-10-13T00:33:55.235Z,6.90
2022-10-13T00:36:25.090Z,7.35
2022-10-13T00:38:54.229Z,7.22
2022-10-13T00:41:22.318Z,7.72
2022-10-13T00:43:49.994Z,8.07
2022-10-13T00:46:21.238Z,7.93
2022-10-13T00:49:02.233Z,8.38
2022-10-13T00:51:34.172Z,7.00
2022-10-13T00:54:05.510Z,7.78
2022-10-13T00:56:34.812Z,7.57
2022-10-13T00:59:05.662Z,7.82
2022-10-13T01:01:33.714Z,7.55
2022-10-13T01:04:01.662Z,7.60
2022-10-13T01:06:29.961Z,8.15
2022-10-13T01:08:57.806Z,8.38
2022-10-13T01:11:25.527Z,7.90
2022-10-13T01:14:09.848Z,8.00
2022-10-13T01:17:03.714Z,8.03
2022-10-13T01:19:59.328Z,7.43
2022-10-13T01:25:07.654Z,7.57
2022-10-13T01:27:39.827Z,8.07
2022-10-13T01:30:18.923Z,7.47
2022-10-13T01:32:54.451Z,7.60
2022-10-13T01:35:50.518Z,8.20
2022-10-13T01:38:39.006Z,8.13
2022-10-13T01:41:20.763Z,8.43
2022-10-13T01:44:06.722Z,7.68
2022-10-13T01:46:38.452Z,8.00
2022-10-13T01:49:12.493Z,8.18
2022-10-13T01:51:42.132Z,8.63
2022-10-13T01:54:09.937Z,8.07
2022-10-13T01:56:38.122Z,7.50
2022-10-13T01:59:11.534Z,7.85
2022-10-13T02:02:02.144Z,7.95
2022-10-13T02:05:01.906Z,7.78
2022-10-13T02:07:42.415Z,9.10
2022-10-13T02:10:41.729Z,8.13
2022-10-13T02:13:14.290Z,8.00
2022-10-13T02:15:46.202Z,8.43
2022-10-13T02:18:17.756Z,7.93
2022-10-13T02:20:46.363Z,8.27
2022-10-13T02:23:16.804Z,7.95
2022-10-13T02:25:45.929Z,7.70
2022-10-13T02:28:15.265Z,8.50
2022-10-13T02:30:46.467Z,8.30
2022-10-13T02:33:15.227Z,8.77
2022-10-13T02:35:44.016Z,8.80
2022-10-13T02:38:11.869Z,8.75
2022-10-13T02:40:39.678Z,8.02
2022-10-13T02:43:07.566Z,9.13
2022-10-13T02:45:35.500Z,8.75
2022-10-13T02:48:03.337Z,8.10
2022-10-13T02:50:31.871Z,8.70
2022-10-13T02:52:59.717Z,8.07
2022-10-13T02:55:27.563Z,8.25
2022-10-13T02:57:57.603Z,8.52
2022-10-13T03:00:25.527Z,8.27
2022-10-13T03:02:54.063Z,8.70
2022-10-13T03:05:22.130Z,7.63
2022-10-13T03:07:49.931Z,8.05
2022-10-13T03:10:18.023Z,8.40
2022-10-13T03:12:46.016Z,8.45
2022-10-13T03:15:14.083Z,8.15
2022-10-13T03:17:41.827Z,7.95
2022-10-13T03:20:10.385Z,7.43
2022-10-13T03:22:38.220Z,7.82
2022-10-13T03:25:06.528Z,8.48
2022-10-13T03:27:34.578Z,9.10
2022-10-13T03:30:03.355Z,7.95
2022-10-13T03:32:33.780Z,8.02
2022-10-13T03:35:01.721Z,8.73
2022-10-13T03:37:30.736Z,8.65
2022-10-13T03:39:58.483Z,7.85
2022-10-13T03:42:26.264Z,8.77
2022-10-13T03:44:56.533Z,8.77
2022-10-13T03:47:24.828Z,9.07
2022-10-13T03:49:55.068Z,8.18
2022-10-13T03:52:23.950Z,8.63
2022-10-13T03:54:51.825Z,8.27
2022-10-13T03:57:19.678Z,8.25
2022-10-13T03:59:47.452Z,8.48
2022-10-13T04:02:15.300Z,8.32
2022-10-13T04:04:43.070Z,8.82
2022-10-13T04:07:10.933Z,8.38
2022-10-13T04:09:38.700Z,8.13
2022-10-13T04:12:06.773Z,8.75
2022-10-13T04:14:34.710Z,8.90
2022-10-13T04:17:11.849Z,9.10
2022-10-13T04:19:39.615Z,9.00
2022-10-13T04:22:07.467Z,8.65
2022-10-13T04:24:35.366Z,8.40
2022-10-13T04:27:03.151Z,9.27
2022-10-13T04:29:30.968Z,9.60
2022-10-13T04:32:00.249Z,9.15
2022-10-13T04:34:27.980Z,10.05
2022-10-13T04:36:55.876Z,9.23
2022-10-13T04:39:23.671Z,9.10
2022-10-13T04:41:52.091Z,8.98
2022-10-13T04:44:20.121Z,9.13
2022-10-13T04:46:47.879Z,9.48
2022-10-13T04:49:16.987Z,9.27
2022-10-13T04:51:44.865Z,9.35
2022-10-13T04:54:12.913Z,9.73
2022-10-13T04:56:40.827Z,9.65
2022-10-13T04:59:08.853Z,9.48
2022-10-13T05:01:36.674Z,9.63
2022-10-13T05:04:07.712Z,9.90
2022-10-13T05:06:58.835Z,8.90
2022-10-13T05:09:27.436Z,10.07
2022-10-13T05:11:55.431Z,8.75
2022-10-13T05:14:23.465Z,10.10
2022-10-13T05:16:51.302Z,10.13
2022-10-13T05:19:19.158Z,9.52
2022-10-13T05:21:46.961Z,9.55
2022-10-13T05:24:17.395Z,9.02
2022-10-13T05:26:48.272Z,9.23
2022-10-13T05:29:17.518Z,10.45
2022-10-13T05:31:45.591Z,10.48
2022-10-13T05:34:14.210Z,9.95
2022-10-13T05:36:42.332Z,10.23
2022-10-13T05:39:10.694Z,9.35
2022-10-13T05:41:39.383Z,9.52
2022-10-13T05:44:14.192Z,9.52
2022-10-13T05:46:54.318Z,9.85
2022-10-13T05:49:22.207Z,9.77
2022-10-13T05:51:55.359Z,9.70
2022-10-13T05:54:42.797Z,9.88
2022-10-13T05:57:27.954Z,9.70
2022-10-13T06:02:34.591Z,9.80
2022-10-13T06:05:04.687Z,9.25
2022-10-13T06:07:32.861Z,9.48
2022-10-13T06:10:01.156Z,10.57
2022-10-13T06:12:28.973Z,9.45
2022-10-13T06:14:56.736Z,10.25
2022-10-13T06:17:24.524Z,9.80
2022-10-13T06:19:52.355Z,9.55
2022-10-13T06:22:22.192Z,9.07
2022-10-13T06:24:50.568Z,9.90
2022-10-13T06:27:18.439Z,9.93
2022-10-13T06:29:48.067Z,10.55
2022-10-13T06:32:15.942Z,8.70
2022-10-13T06:34:43.823Z,9.95
2022-10-13T06:37:11.665Z,8.95
2022-10-13T06:39:39.481Z,9.55
2022-10-13T06:42:07.522Z,9.35
2022-10-13T06:44:38.919Z,9.10
2022-10-13T06:47:06.899Z,10.70
2022-10-13T06:49:34.880Z,9.88
2022-10-13T06:52:02.708Z,9.30
2022-10-13T06:54:30.700Z,9.68
2022-10-13T06:56:58.563Z,9.75
2022-10-13T06:59:27.772Z,9.05
2022-10-13T07:01:55.726Z,9.57
2022-10-13T07:04:25.798Z,9.77
2022-10-13T07:06:55.974Z,10.02
2022-10-13T07:09:23.816Z,9.82
2022-10-13T07:11:51.684Z,9.70
2022-10-13T07:14:19.823Z,10.00
2022-10-13T07:16:50.455Z,9.65
2022-10-13T07:19:18.293Z,9.52
2022-10-13T07:21:46.108Z,9.73
2022-10-13T07:24:13.899Z,9.88
2022-10-13T07:26:41.692Z,9.75
2022-10-13T07:29:09.768Z,9.93
2022-10-13T07:31:37.664Z,9.95
2022-10-13T07:34:06.913Z,10.32
2022-10-13T07:36:35.520Z,10.32
2022-10-13T07:39:04.037Z,10.13
2022-10-13T07:41:33.217Z,9.90
2022-10-13T07:44:01.032Z,9.77
2022-10-13T07:46:29.852Z,9.35
2022-10-13T07:48:58.168Z,9.75
2022-10-13T07:51:25.968Z,9.50
2022-10-13T07:53:54.242Z,9.23
2022-10-13T07:56:22.345Z,9.30
2022-10-13T07:58:50.450Z,10.05
2022-10-13T08:01:18.452Z,9.52
2022-10-13T08:03:49.911Z,10.25
2022-10-13T08:06:19.405Z,9.70
2022-10-13T08:08:48.205Z,8.57
2022-10-13T08:11:18.129Z,9.75
2022-10-13T08:13:50.391Z,9.60
2022-10-13T08:16:24.424Z,9.20
2022-10-13T08:18:52.915Z,9.90
2022-10-13T08:21:52.784Z,9.63
2022-10-13T08:24:15.715Z,9.00
2022-10-13T08:26:44.836Z,10.02
2022-10-13T08:29:21.814Z,10.65
2022-10-13T08:31:51.546Z,9.63
2022-10-13T08:34:19.598Z,10.05
2022-10-13T08:36:47.501Z,9.93
2022-10-13T08:39:15.335Z,10.27
2022-10-13T08:41:44.108Z,9.93
2022-10-13T08:45:15.720Z,9.77
2022-10-13T08:47:28.339Z,10.32
2022-10-13T08:50:00.679Z,10.80
2022-10-13T08:52:42.940Z,10.25
2022-10-13T08:55:34.665Z,11.00
2022-10-13T08:58:09.683Z,10.02
2022-10-13T09:00:38.517Z,9.93
2022-10-13T09:03:28.063Z,9.45
2022-10-13T09:06:15.314Z,10.00
2022-10-13T09:08:50.994Z,10.98
2022-10-13T09:11:19.191Z,10.38
2022-10-13T09:13:47.073Z,10.75
2022-10-13T09:16:15.327Z,10.75
2022-10-13T09:18:43.090Z,11.40
2022-10-13T09:21:26.061Z,12.18
2022-10-13T09:24:07.394Z,12.23
2022-10-13T09:26:39.587Z,11.75
2022-10-13T09:29:25.405Z,11.90
2022-10-13T09:32:16.611Z,13.20
2022-10-13T09:34:45.447Z,12.35
2022-10-13T09:37:25.972Z,12.57
2022-10-13T09:40:14.617Z,12.73
2022-10-13T09:42:42.587Z,12.25
2022-10-13T09:45:17.493Z,11.25
2022-10-13T09:48:02.818Z,11.73
2022-10-13T09:50:33.189Z,11.57
2022-10-13T09:53:26.594Z,11.32
2022-10-13T09:56:33.595Z,11.30
2022-10-13T09:59:14.691Z,10.60
2022-10-13T10:01:46.604Z,11.05
2022-10-13T10:04:23.174Z,10.15
2022-10-13T10:06:51.052Z,9.20
2022-10-13T10:09:41.657Z,10.27
2022-10-13T10:12:16.857Z,10.10
2022-10-13T10:14:45.363Z,10.05
2022-10-13T10:17:23.879Z,9.70
2022-10-13T10:20:11.311Z,10.00
2022-10-13T10:22:39.787Z,10.10
2022-10-13T10:25:26.306Z,10.65
2022-10-13T10:28:18.992Z,10.30
2022-10-13T10:31:06.815Z,10.25
2022-10-13T10:34:06.633Z,10.18
2022-10-13T10:36:46.005Z,10.02
2022-10-13T10:39:27.521Z,9.85
2022-10-13T10:42:35.660Z,9.88
2022-10-13T10:45:14.207Z,9.38
2022-10-13T10:47:46.040Z,9.30
2022-10-13T10:50:18.758Z,9.18
2022-10-13T10:52:55.303Z,8.45
2022-10-13T10:55:48.824Z,8.52
2022-10-13T10:58:29.235Z,8.73
2022-10-13T11:01:13.904Z,9.20
2022-10-13T11:04:02.237Z,8.88
2022-10-13T11:06:35.584Z,8.95
2022-10-13T11:09:05.869Z,8.27
2022-10-13T11:11:39.372Z,8.73
2022-10-13T11:14:13.027Z,9.05
2022-10-13T11:17:10.731Z,8.32
2022-10-13T11:19:40.522Z,8.18
2022-10-13T11:22:13.241Z,8.70
2022-10-13T11:24:54.319Z,8.20
2022-10-13T11:27:39.751Z,7.20
2022-10-13T11:30:50.682Z,7.65
2022-10-13T11:33:40.345Z,7.38
2022-10-13T11:36:46.239Z,5.70
2022-10-13T11:39:38.627Z,5.95
2022-10-13T11:42:29.671Z,6.20
2022-10-13T11:45:04.602Z,6.00
2022-10-13T11:47:58.100Z,5.63
2022-10-13T11:50:52.624Z,6.50
2022-10-13T11:53:28.557Z,6.57
2022-10-13T11:55:58.849Z,6.90
2022-10-13T11:58:30.153Z,7.38
2022-10-13T12:00:59.434Z,7.22
2022-10-13T12:03:34.414Z,7.80
2022-10-13T12:06:26.630Z,7.97
2022-10-13T12:08:54.624Z,9.30
2022-10-13T12:11:28.954Z,8.77
2022-10-13T12:13:57.424Z,9.07
2022-10-13T12:16:25.442Z,8.88
2022-10-13T12:18:53.787Z,8.95
2022-10-13T12:21:23.316Z,9.98
2022-10-13T12:24:05.706Z,9.63
2022-10-13T12:26:33.631Z,9.57
2022-10-13T12:29:03.222Z,10.25
2022-10-13T12:31:41.281Z,10.05
2022-10-13T12:34:32.865Z,9.95
2022-10-13T12:37:23.907Z,9.65
2022-10-13T12:39:51.891Z,8.65
2022-10-13T12:42:31.310Z,8.88
2022-10-13T12:45:00.457Z,8.48
2022-10-13T12:47:51.458Z,8.85
2022-10-13T12:50:28.323Z,8.35
2022-10-13T12:53:10.544Z,8.70
2022-10-13T12:55:49.088Z,8.05
2022-10-13T12:58:28.011Z,9.00
2022-10-13T13:01:06.160Z,9.10
2022-10-13T13:03:37.244Z,8.80
2022-10-13T13:06:14.032Z,8.77
2022-10-13T13:08:44.689Z,9.52
2022-10-13T13:11:32.647Z,9.18
2022-10-13T13:14:33.159Z,9.52
2022-10-13T13:17:12.944Z,10.65
2022-10-13T13:19:49.006Z,9.45
2022-10-13T13:22:17.307Z,9.88
2022-10-13T13:24:46.335Z,9.73
2022-10-13T13:27:24.671Z,10.27
2022-10-13T13:29:56.405Z,9.52
2022-10-13T13:32:27.166Z,10.98
2022-10-13T13:34:55.254Z,10.75
2022-10-13T13:37:24.901Z,10.60
2022-10-13T13:39:52.941Z,10.93
2022-10-13T13:42:20.964Z,11.38
2022-10-13T13:44:50.516Z,11.13
2022-10-13T13:47:24.381Z,11.30
2022-10-13T13:49:53.613Z,11.53
2022-10-13T13:52:22.200Z,11.27
2022-10-13T13:54:50.986Z,12.23
2022-10-13T13:57:19.729Z,12.50
2022-10-13T13:59:48.055Z,12.35
2022-10-13T14:02:19.695Z,12.27
2022-10-13T14:04:47.691Z,12.07
2022-10-13T14:07:16.572Z,12.02
2022-10-13T14:09:47.025Z,11.80
2022-10-13T14:12:17.828Z,12.50
2022-10-13T14:14:47.404Z,11.10
2022-10-13T14:17:16.755Z,12.30
2022-10-13T14:19:44.554Z,12.40
2022-10-13T14:22:12.449Z,12.60
2022-10-13T14:24:40.431Z,12.18
2022-10-13T14:27:09.965Z,12.13
2022-10-13T14:29:38.107Z,12.07
2022-10-13T14:32:06.063Z,12.75
2022-10-13T14:34:33.944Z,12.32
2022-10-13T14:37:01.821Z,13.00
2022-10-13T14:39:31.265Z,12.10
2022-10-13T14:41:59.555Z,12.27
2022-10-13T14:44:27.523Z,11.85
2022-10-13T14:46:55.845Z,12.75
2022-10-13T14:49:23.971Z,11.82
2022-10-13T14:51:51.924Z,12.93
2022-10-13T14:54:19.809Z,11.93
2022-10-13T14:56:47.861Z,12.65
2022-10-13T14:59:15.794Z,12.57
2022-10-13T15:01:46.098Z,12.90
2022-10-13T15:04:14.224Z,12.40
2022-10-13T15:06:42.866Z,12.98
2022-10-13T15:09:12.666Z,12.68
2022-10-13T15:11:40.614Z,12.90
2022-10-13T15:14:09.736Z,13.02
2022-10-13T15:16:37.923Z,12.65
2022-10-13T15:19:06.233Z,11.98
2022-10-13T15:21:34.106Z,12.23
2022-10-13T15:24:02.531Z,12.55
2022-10-13T15:26:30.584Z,12.52
2022-10-13T15:28:58.731Z,13.18
2022-10-13T15:31:26.815Z,12.25
2022-10-13T15:33:55.436Z,12.75
2022-10-13T15:36:24.957Z,13.20
2022-10-13T15:38:53.382Z,12.48
2022-10-13T15:41:23.105Z,12.52
2022-10-13T15:43:51.394Z,12.38
2022-10-13T15:46:24.386Z,12.43
2022-10-13T15:48:53.388Z,13.07
2022-10-13T15:51:24.209Z,12.75
2022-10-13T15:53:52.139Z,12.52
2022-10-13T15:56:20.066Z,13.40
2022-10-13T15:58:47.919Z,13.48
2022-10-13T16:01:16.217Z,13.70
2022-10-13T16:03:44.162Z,14.75
2022-10-13T16:06:13.361Z,14.55
2022-10-13T16:08:44.178Z,14.77
2022-10-13T16:11:18.069Z,15.85
2022-10-13T16:13:47.781Z,15.07
2022-10-13T16:16:16.721Z,16.38
2022-10-13T16:18:44.979Z,16.23
2022-10-13T16:21:21.564Z,16.75
2022-10-13T16:23:49.999Z,15.90
2022-10-13T16:26:18.297Z,16.35
2022-10-13T16:28:46.976Z,15.35
2022-10-13T16:31:16.891Z,17.63
2022-10-13T16:33:48.299Z,15.93
2022-10-13T16:36:19.401Z,15.60
2022-10-13T16:38:54.740Z,15.43
2022-10-13T16:41:23.871Z,16.33
2022-10-13T16:43:51.780Z,15.75
2022-10-13T16:46:20.616Z,16.95
2022-10-13T16:48:48.728Z,15.95
2022-10-13T16:51:20.510Z,16.65
2022-10-13T16:53:51.669Z,16.25
2022-10-13T16:56:22.333Z,16.60
2022-10-13T16:58:52.881Z,16.75
2022-10-13T17:01:21.542Z,16.67
2022-10-13T17:03:50.898Z,16.20
2022-10-13T17:06:21.530Z,16.25
2022-10-13T17:09:00.115Z,17.27
2022-10-13T17:11:31.014Z,17.10
2022-10-13T17:14:00.283Z,17.17
2022-10-13T17:16:32.164Z,17.52
2022-10-13T17:19:00.519Z,18.85
2022-10-13T17:21:37.096Z,17.70
2022-10-13T17:24:07.215Z,18.27
2022-10-13T17:26:36.101Z,18.42
2022-10-13T17:29:04.205Z,17.63
2022-10-13T17:31:32.242Z,18.65
2022-10-13T17:34:00.759Z,18.27
2022-10-13T17:36:34.299Z,17.40
2022-10-13T17:39:11.513Z,17.83
2022-10-13T17:41:42.004Z,19.17
2022-10-13T17:44:11.461Z,18.45
2022-10-13T17:46:39.923Z,19.02
2022-10-13T17:49:11.551Z,19.63
2022-10-13T17:51:44.192Z,18.30
2022-10-13T17:54:16.021Z,19.00
2022-10-13T17:56:45.594Z,19.65
2022-10-13T17:59:15.134Z,19.90
2022-10-13T18:01:44.070Z,20.08
2022-10-13T18:04:15.115Z,19.58
2022-10-13T18:06:44.048Z,20.17
2022-10-13T18:09:25.247Z,19.67
2022-10-13T18:11:54.760Z,20.58
2022-10-13T18:14:24.402Z,20.90
2022-10-13T18:16:53.095Z,21.05
2022-10-13T18:19:21.683Z,20.70
2022-10-13T18:21:50.300Z,21.92
2022-10-13T18:24:18.664Z,21.90
2022-10-13T18:26:47.034Z,22.27
2022-10-13T18:29:14.975Z,23.25
2022-10-13T18:31:43.290Z,22.55
2022-10-13T18:34:17.179Z,22.02
2022-10-13T18:36:51.320Z,23.25
2022-10-13T18:39:22.395Z,21.88
2022-10-13T18:41:51.630Z,22.45
2022-10-13T18:44:20.647Z,22.13
2022-10-13T18:46:56.355Z,24.73
2022-10-13T18:49:30.964Z,23.65
2022-10-13T18:52:00.977Z,23.63
2022-10-13T18:54:30.170Z,22.77
2022-10-13T18:56:58.369Z,22.33
2022-10-13T18:59:26.520Z,23.50
2022-10-13T19:01:54.392Z,23.70
2022-10-13T19:04:22.900Z,23.23
2022-10-13T19:06:51.641Z,23.25
2022-10-13T19:09:21.614Z,23.45
2022-10-13T19:11:50.017Z,23.40
2022-10-13T19:14:19.004Z,24.20
2022-10-13T19:16:46.862Z,23.05
2022-10-13T19:19:14.949Z,23.80
2022-10-13T19:21:43.043Z,24.90
2022-10-13T19:24:11.851Z,24.23
2022-10-13T19:26:39.976Z,22.92
2022-10-13T19:29:11.838Z,24.50
2022-10-13T19:31:41.399Z,24.08
2022-10-13T19:34:11.444Z,22.73
2022-10-13T19:36:45.762Z,23.70
2022-10-13T19:39:23.461Z,23.30
2022-10-13T19:41:53.508Z,23.73
2022-10-13T19:44:22.999Z,23.45
2022-10-13T19:46:51.602Z,23.38
2022-10-13T19:49:21.585Z,23.85
2022-10-13T19:51:50.419Z,24.10
2022-10-13T19:54:21.654Z,24.92
2022-10-13T19:56:50.592Z,24.75
2022-10-13T19:59:19.334Z,24.67
2022-10-13T20:01:47.676Z,24.75
2022-10-13T20:04:18.591Z,24.10
2022-10-13T20:06:47.657Z,25.52
2022-10-13T20:09:16.147Z,23.90
2022-10-13T20:11:48.856Z,24.60
2022-10-13T20:14:17.379Z,24.23
2022-10-13T20:16:45.627Z,24.08
2022-10-13T20:19:16.431Z,25.63
2022-10-13T20:21:47.989Z,25.23
2022-10-13T20:24:15.928Z,24.38
2022-10-13T20:26:43.793Z,25.50
2022-10-13T20:29:12.306Z,24.35
2022-10-13T20:31:40.316Z,24.38
2022-10-13T20:34:09.952Z,24.60
2022-10-13T20:36:39.218Z,21.55
2022-10-13T20:39:08.896Z,22.05
2022-10-13T20:41:37.194Z,22.08
2022-10-13T20:44:05.805Z,18.92
2022-10-13T20:46:34.613Z,20.10
2022-10-13T20:49:11.317Z,18.60
2022-10-13T20:51:40.875Z,18.80
2022-10-13T20:54:09.785Z,17.02
2022-10-13T20:56:39.548Z,17.92
2022-10-13T20:59:14.842Z,17.42
2022-10-13T21:01:43.348Z,16.48
2022-10-13T21:04:12.556Z,16.67
2022-10-13T21:06:44.039Z,16.30
2022-10-13T21:09:12.491Z,15.13
2022-10-13T21:11:42.876Z,12.82
2022-10-13T21:14:10.821Z,13.70
2022-10-13T21:16:40.155Z,13.25
2022-10-13T21:19:12.604Z,11.65
2022-10-13T21:21:40.451Z,12.30
2022-10-13T21:24:08.909Z,12.45
2022-10-13T21:26:37.180Z,11.35
2022-10-13T21:29:05.265Z,12.45
2022-10-13T21:31:39.369Z,11.80
2022-10-13T21:34:07.284Z,12.38
2022-10-13T21:36:35.410Z,11.38
2022-10-13T21:39:05.753Z,11.68
2022-10-13T21:41:36.776Z,11.30
2022-10-13T21:44:05.073Z,10.63
2022-10-13T21:46:35.610Z,10.88
2022-10-13T21:49:05.565Z,11.98
2022-10-13T21:51:38.819Z,11.32
2022-10-13T21:54:12.259Z,11.40
2022-10-13T21:56:42.035Z,11.20
2022-10-13T21:59:12.318Z,12.18
2022-10-13T22:01:40.675Z,12.98
2022-10-13T22:04:14.403Z,12.73
2022-10-13T22:06:43.340Z,12.35
2022-10-13T22:09:11.333Z,12.93
2022-10-13T22:11:40.183Z,12.98
2022-10-13T22:14:12.062Z,13.35
2022-10-13T22:16:43.131Z,13.18
2022-10-13T22:19:11.376Z,13.85
2022-10-13T22:21:45.236Z,14.38
2022-10-13T22:24:18.258Z,15.30
2022-10-13T22:26:47.226Z,16.05
2022-10-13T22:29:19.556Z,14.30
2022-10-13T22:31:48.718Z,15.77
2022-10-13T22:34:17.225Z,16.67
2022-10-13T22:36:45.542Z,16.40
2022-10-13T22:39:14.117Z,16.73
2022-10-13T22:41:41.891Z,15.20
2022-10-13T22:44:10.087Z,17.15
2022-10-13T22:46:39.002Z,16.83
2022-10-13T22:49:07.877Z,16.38
2022-10-13T22:51:36.655Z,16.52
2022-10-13T22:54:04.607Z,15.93
2022-10-13T22:56:33.956Z,16.58
2022-10-13T22:59:06.790Z,15.70
2022-10-13T23:01:35.042Z,17.67
2022-10-13T23:04:03.241Z,16.75
2022-10-13T23:06:33.097Z,15.40
2022-10-13T23:09:09.493Z,16.10
2022-10-13T23:11:37.470Z,17.58
2022-10-13T23:14:06.674Z,16.83
2022-10-13T23:16:35.106Z,17.90
2022-10-13T23:19:03.606Z,16.80
2022-10-13T23:21:31.798Z,17.45
2022-10-13T23:24:04.617Z,18.20
2022-10-13T23:26:33.524Z,17.08
2022-10-13T23:29:01.544Z,18.20
2022-10-13T23:31:29.790Z,16.98
2022-10-13T23:33:58.656Z,18.88
2022-10-13T23:36:29.034Z,18.33
2022-10-13T23:39:02.464Z,17.17
2022-10-13T23:41:30.311Z,16.38
2022-10-13T23:43:58.420Z,14.75
2022-10-13T23:46:26.371Z,17.25
2022-10-13T23:48:54.211Z,15.57
2022-10-13T23:51:25.616Z,16.23
2022-10-13T23:53:53.695Z,16.50
2022-10-13T23:56:22.161Z,16.63
2022-10-13T23:58:50.539Z,17.23
